Time;durP1;ratioP1;P1;durP2;ratioP2;P2;SDS_P1;SDS_P2;PMS_P1;PMS_P2;Temp;Humidity;BMP_temperature;BMP_pressure;BME280_temperature;BME280_humidity;BME280_pressure;Samples;Min_cycle;Max_cycle;Signal;HPM_P1;HPM_P2
2020/12/23 00:00:46;;;;;;;10.82;6.20;;;11.70;99.90;;;;;;4954692;29;20007;-92
2020/12/23 00:03:11;;;;;;;15.27;6.55;;;11.70;99.90;;;;;;4908064;29;20038;-92
2020/12/23 00:05:39;;;;;;;18.20;7.47;;;11.70;99.90;;;;;;4969150;29;20427;-92
2020/12/23 00:08:06;;;;;;;14.10;6.72;;;11.70;99.90;;;;;;4914356;29;20059;-93
2020/12/23 00:10:35;;;;;;;12.27;5.78;;;11.70;99.90;;;;;;4930901;29;20103;-90
2020/12/23 00:13:03;;;;;;;14.90;6.10;;;11.70;99.90;;;;;;4903574;29;20024;-92
2020/12/23 00:15:55;;;;;;;12.60;6.18;;;11.70;99.90;;;;;;4917111;29;20037;-93
2020/12/23 00:18:21;;;;;;;12.05;7.13;;;11.70;99.90;;;;;;4933011;29;20064;-90
2020/12/23 00:20:52;;;;;;;11.20;6.43;;;11.70;99.90;;;;;;4932623;29;20155;-89
2020/12/23 00:23:22;;;;;;;14.88;6.80;;;11.70;99.90;;;;;;4915317;29;20062;-90
2020/12/23 00:25:52;;;;;;;11.38;6.05;;;11.70;99.90;;;;;;4921883;29;20043;-91
2020/12/23 00:28:19;;;;;;;17.58;7.53;;;11.70;99.90;;;;;;4910829;29;20077;-91
2020/12/23 00:30:45;;;;;;;14.23;7.32;;;11.80;99.90;;;;;;4909275;29;20336;-89
2020/12/23 00:33:13;;;;;;;16.13;8.20;;;11.80;99.90;;;;;;4905540;29;20053;-90
2020/12/23 00:35:43;;;;;;;12.75;7.30;;;11.70;99.90;;;;;;4882606;29;20108;-92
2020/12/23 00:38:09;;;;;;;17.17;8.10;;;11.80;99.90;;;;;;4877846;29;20074;-91
2020/12/23 00:40:36;;;;;;;14.55;8.05;;;11.80;99.90;;;;;;4845498;29;20062;-90
2020/12/23 00:43:05;;;;;;;15.73;7.63;;;11.80;99.90;;;;;;4854745;29;20046;-89
2020/12/23 00:45:31;;;;;;;15.75;8.52;;;11.70;99.90;;;;;;4841071;29;20038;-90
2020/12/23 00:47:57;;;;;;;14.48;8.07;;;11.70;99.90;;;;;;4833900;29;20041;-91
2020/12/23 00:50:24;;;;;;;19.67;8.32;;;11.70;99.90;;;;;;4841460;29;20045;-91
2020/12/23 00:52:50;;;;;;;15.68;8.25;;;11.60;99.90;;;;;;4834052;29;20053;-91
2020/12/23 00:55:16;;;;;;;15.35;8.50;;;11.70;99.90;;;;;;4850802;29;20030;-92
2020/12/23 00:57:42;;;;;;;19.27;8.45;;;11.70;99.90;;;;;;4840808;29;20029;-90
2020/12/23 01:00:12;;;;;;;17.60;8.85;;;11.70;99.90;;;;;;4887947;29;20486;-91
2020/12/23 01:02:39;;;;;;;13.57;8.43;;;11.60;99.90;;;;;;4888661;29;20032;-91
2020/12/23 01:05:05;;;;;;;18.10;9.85;;;11.70;99.90;;;;;;4882985;29;20046;-90
2020/12/23 01:07:36;;;;;;;15.88;9.85;;;11.70;99.90;;;;;;4889951;29;20039;-91
2020/12/23 01:10:05;;;;;;;18.67;9.70;;;11.70;99.90;;;;;;4897935;29;20117;-90
2020/12/23 01:12:33;;;;;;;15.05;10.30;;;11.70;99.90;;;;;;4900077;29;20037;-91
2020/12/23 01:14:59;;;;;;;17.17;10.73;;;11.70;99.90;;;;;;4855832;29;20076;-90
2020/12/23 01:17:29;;;;;;;18.58;10.95;;;11.70;99.90;;;;;;4793853;29;20039;-91
2020/12/23 01:19:54;;;;;;;14.98;10.27;;;11.70;99.90;;;;;;4809355;29;20239;-92
2020/12/23 01:22:26;;;;;;;19.27;11.30;;;11.70;99.90;;;;;;4811735;29;20424;-89
2020/12/23 01:24:53;;;;;;;;;;;11.70;99.90;;;;;;4815356;29;20035;-91
2020/12/23 01:27:19;;;;;;;20.42;12.48;;;11.70;99.90;;;;;;4797374;29;19910;-89
2020/12/23 01:29:50;;;;;;;15.85;10.07;;;11.70;99.90;;;;;;4777488;30;20440;-90
2020/12/23 01:32:17;;;;;;;18.85;10.50;;;11.70;99.90;;;;;;4789718;29;20112;-91
2020/12/23 01:34:43;;;;;;;16.88;9.07;;;11.80;99.90;;;;;;4806231;29;20043;-91
2020/12/23 01:37:11;;;;;;;11.88;9.00;;;11.80;99.90;;;;;;4787592;29;20122;-92
2020/12/23 01:39:38;;;;;;;12.45;8.27;;;11.70;99.90;;;;;;4792280;29;20165;-90
2020/12/23 01:42:06;;;;;;;13.68;8.95;;;11.70;99.90;;;;;;4806311;29;20194;-92
2020/12/23 01:44:37;;;;;;;13.48;8.65;;;11.70;99.90;;;;;;4796518;29;20103;-90
2020/12/23 01:47:11;;;;;;;13.60;8.82;;;11.70;99.90;;;;;;4829302;29;20042;-90
2020/12/23 01:49:41;;;;;;;14.07;8.02;;;11.70;99.90;;;;;;4832234;29;20068;-90
2020/12/23 01:52:07;;;;;;;12.10;8.80;;;11.80;99.90;;;;;;4825385;29;20381;-91
2020/12/23 01:54:33;;;;;;;13.77;8.60;;;11.70;99.90;;;;;;4831418;29;20046;-92
2020/12/23 01:57:02;;;;;;;12.85;7.63;;;11.70;99.90;;;;;;4867832;29;20041;-91
2020/12/23 01:59:29;;;;;;;12.95;8.15;;;11.70;99.90;;;;;;4844237;29;20136;-92
2020/12/23 02:02:32;;;;;;;12.40;8.73;;;11.70;99.90;;;;;;4808285;29;20074;-91
2020/12/23 02:05:18;;;;;;;11.80;8.30;;;11.70;99.90;;;;;;4805006;29;20038;-92
2020/12/23 02:07:48;;;;;;;9.02;6.53;;;11.70;99.90;;;;;;4807956;29;20042;-92
2020/12/23 02:10:15;;;;;;;10.63;7.00;;;11.70;99.90;;;;;;4812682;29;20030;-91
2020/12/23 02:12:41;;;;;;;11.85;6.90;;;11.60;99.90;;;;;;4804807;29;20475;-91
2020/12/23 02:15:12;;;;;;;7.90;6.07;;;11.60;99.90;;;;;;4802441;29;20046;-91
2020/12/23 02:17:41;;;;;;;8.60;6.53;;;11.60;99.90;;;;;;4831298;29;20077;-93
2020/12/23 02:20:13;;;;;;;8.20;5.15;;;11.60;99.90;;;;;;4842887;29;20041;-89
2020/12/23 02:22:40;;;;;;;11.55;4.72;;;11.60;99.90;;;;;;4854784;29;20181;-93
2020/12/23 02:25:09;;;;;;;6.05;4.60;;;11.60;99.90;;;;;;4854429;29;20084;-91
2020/12/23 02:27:37;;;;;;;8.80;4.45;;;11.60;99.90;;;;;;4844293;29;20046;-90
2020/12/23 02:30:08;;;;;;;6.47;4.50;;;11.60;99.90;;;;;;4851828;29;20029;-89
2020/12/23 02:32:35;;;;;;;6.30;3.72;;;11.50;99.90;;;;;;4887567;29;20335;-89
2020/12/23 02:35:04;;;;;;;6.25;4.18;;;11.50;99.90;;;;;;4878256;29;20069;-91
2020/12/23 02:37:30;;;;;;;6.93;4.75;;;11.50;99.90;;;;;;4848155;29;20045;-90
2020/12/23 02:39:59;;;;;;;7.20;4.55;;;11.50;99.90;;;;;;4876191;29;20051;-90
2020/12/23 02:42:26;;;;;;;9.48;4.20;;;11.50;99.90;;;;;;4877447;29;20115;-91
2020/12/23 02:44:55;;;;;;;7.90;4.22;;;11.50;99.90;;;;;;4895716;29;20403;-91
2020/12/23 02:47:21;;;;;;;5.72;4.10;;;11.50;99.90;;;;;;4879086;29;20036;-92
2020/12/23 02:49:47;;;;;;;8.38;4.10;;;11.50;99.90;;;;;;4874966;29;20107;-91
2020/12/23 02:52:18;;;;;;;7.85;4.70;;;11.50;99.90;;;;;;4883406;29;20048;-90
2020/12/23 02:54:46;;;;;;;;;;;11.50;99.90;;;;;;4915009;29;20206;-92
2020/12/23 02:57:15;;;;;;;7.22;3.63;;;11.50;99.90;;;;;;4916650;29;19912;-91
2020/12/23 02:59:40;;;;;;;6.45;3.90;;;11.40;99.90;;;;;;4902355;29;20026;-92
2020/12/23 03:02:07;;;;;;;7.32;4.32;;;11.50;99.90;;;;;;4887859;29;20071;-91
2020/12/23 03:04:37;;;;;;;4.82;3.55;;;11.40;99.90;;;;;;4903463;29;20069;-90
2020/12/23 03:07:05;;;;;;;4.90;3.03;;;11.40;99.90;;;;;;4888337;29;20029;-91
2020/12/23 03:09:31;;;;;;;4.55;3.10;;;11.40;99.90;;;;;;4904165;29;20025;-91
2020/12/23 03:11:58;;;;;;;4.85;3.15;;;11.40;99.90;;;;;;4893364;29;20049;-92
2020/12/23 03:14:28;;;;;;;8.57;5.22;;;11.40;99.90;;;;;;4921192;29;20047;-91
2020/12/23 03:16:58;;;;;;;8.70;4.18;;;11.40;99.90;;;;;;4883971;29;20026;-92
2020/12/23 03:19:28;;;;;;;5.95;4.25;;;11.50;99.90;;;;;;4876597;29;20067;-91
2020/12/23 03:21:58;;;;;;;7.40;3.88;;;11.50;99.90;;;;;;4865692;29;20050;-93
2020/12/23 03:24:28;;;;;;;9.27;4.85;;;11.50;99.90;;;;;;4869145;29;20021;-93
2020/12/23 03:30:21;;;;;;;9.30;5.22;;;11.50;99.90;;;;;;4891979;29;20032;-92
2020/12/23 03:33:08;;;;;;;7.57;4.32;;;11.60;99.90;;;;;;4912584;29;20091;-90
2020/12/23 03:35:34;;;;;;;9.27;4.13;;;11.60;99.90;;;;;;4886366;29;20041;-92
2020/12/23 03:38:02;;;;;;;5.72;3.60;;;11.60;99.90;;;;;;4866871;29;20026;-91
2020/12/23 03:40:31;;;;;;;4.10;2.85;;;11.60;99.90;;;;;;4881731;29;20052;-92
2020/12/23 03:42:57;;;;;;;6.20;3.03;;;11.50;99.90;;;;;;4875196;29;20053;-92
2020/12/23 03:45:24;;;;;;;4.95;3.25;;;11.50;99.90;;;;;;4842087;29;20022;-92
2020/12/23 03:47:51;;;;;;;4.38;2.97;;;11.50;99.90;;;;;;4865843;29;20032;-92
2020/12/23 03:50:19;;;;;;;4.68;3.10;;;11.50;99.90;;;;;;4864038;29;20034;-92
2020/12/23 03:52:50;;;;;;;4.22;2.75;;;11.50;99.90;;;;;;4848481;29;20044;-90
2020/12/23 03:55:16;;;;;;;4.22;2.17;;;11.50;99.90;;;;;;4898276;29;20045;-92
2020/12/23 03:57:44;;;;;;;2.63;1.92;;;11.50;99.90;;;;;;4883212;29;20049;-91
2020/12/23 04:00:12;;;;;;;3.45;2.08;;;11.50;99.90;;;;;;4895869;29;20025;-90
2020/12/23 04:02:40;;;;;;;3.50;2.40;;;11.50;99.90;;;;;;4899728;29;20059;-89
2020/12/23 04:05:10;;;;;;;1.90;1.75;;;11.50;99.90;;;;;;4901573;29;20041;-89
2020/12/23 04:07:37;;;;;;;5.32;2.45;;;11.50;99.90;;;;;;4870693;29;20041;-92
2020/12/23 04:10:06;;;;;;;3.28;2.30;;;11.50;99.90;;;;;;4885236;29;20106;-89
2020/12/23 04:12:32;;;;;;;1.88;1.75;;;11.50;99.90;;;;;;4866619;29;20041;-88
2020/12/23 04:15:09;;;;;;;3.88;1.83;;;11.50;99.90;;;;;;4897016;29;20029;-88
2020/12/23 04:17:36;;;;;;;3.10;1.42;;;11.50;99.90;;;;;;4896811;29;20052;-88
2020/12/23 04:20:07;;;;;;;2.85;2.08;;;11.50;99.90;;;;;;4894143;29;20097;-89
2020/12/23 04:22:34;;;;;;;;;;;11.50;99.90;;;;;;4883258;29;20128;-89
2020/12/23 04:25:07;;;;;;;2.85;1.95;;;11.50;99.90;;;;;;4881979;29;20011;-88
2020/12/23 04:27:36;;;;;;;5.10;2.73;;;11.50;99.90;;;;;;4872853;29;20044;-88
2020/12/23 04:30:07;;;;;;;3.00;1.85;;;11.50;99.90;;;;;;4890278;29;20292;-88
2020/12/23 04:32:34;;;;;;;2.65;1.70;;;11.50;99.90;;;;;;4889355;29;20112;-88
2020/12/23 04:35:04;;;;;;;2.75;2.00;;;11.50;99.90;;;;;;4919452;29;20029;-90
2020/12/23 04:37:32;;;;;;;4.43;2.53;;;11.50;99.90;;;;;;4911555;29;20020;-89
2020/12/23 04:39:59;;;;;;;2.22;1.75;;;11.50;99.90;;;;;;4915143;29;20058;-89
2020/12/23 04:42:30;;;;;;;3.45;2.60;;;11.50;99.90;;;;;;4885095;29;20065;-90
2020/12/23 04:44:56;;;;;;;2.47;1.95;;;11.50;99.90;;;;;;4857862;29;20049;-90
2020/12/23 04:47:26;;;;;;;4.72;1.85;;;11.50;99.90;;;;;;4852933;29;20089;-90
2020/12/23 04:49:58;;;;;;;2.60;1.83;;;11.50;99.90;;;;;;4825287;29;20039;-91
2020/12/23 04:52:31;;;;;;;4.30;2.08;;;11.50;99.90;;;;;;4887229;29;20029;-91
2020/12/23 04:55:05;;;;;;;3.33;2.58;;;11.50;99.90;;;;;;4872623;29;20048;-91
2020/12/23 04:57:31;;;;;;;5.15;2.10;;;11.50;99.90;;;;;;4852808;29;20026;-90
2020/12/23 04:59:58;;;;;;;3.75;2.40;;;11.50;99.90;;;;;;4834892;29;20077;-89
2020/12/23 05:02:25;;;;;;;2.63;2.35;;;11.40;99.90;;;;;;4850238;29;20050;-90
2020/12/23 05:04:52;;;;;;;3.08;2.50;;;11.50;99.90;;;;;;4800226;29;20049;-89
2020/12/23 05:07:20;;;;;;;5.32;3.13;;;11.40;99.90;;;;;;4844697;29;20041;-90
2020/12/23 05:09:49;;;;;;;2.63;2.05;;;11.40;99.90;;;;;;4809249;29;20121;-90
2020/12/23 05:12:19;;;;;;;3.50;2.20;;;11.50;99.90;;;;;;4821713;29;20038;-90
2020/12/23 05:14:47;;;;;;;2.60;2.20;;;11.50;99.90;;;;;;4811353;29;20058;-89
2020/12/23 05:17:16;;;;;;;3.90;2.50;;;11.40;99.90;;;;;;4826147;29;20214;-92
2020/12/23 05:19:44;;;;;;;3.13;2.25;;;11.50;99.90;;;;;;4806732;29;20094;-91
2020/12/23 05:25:01;;;;;;;4.50;3.13;;;11.50;99.90;;;;;;4820697;29;20077;-90
2020/12/23 05:27:33;;;;;;;7.15;4.45;;;11.40;99.90;;;;;;4802685;29;20039;-87
2020/12/23 05:30:02;;;;;;;5.43;3.53;;;11.40;99.90;;;;;;4793784;29;20067;-89
2020/12/23 05:32:28;;;;;;;7.70;4.75;;;11.40;99.90;;;;;;4805306;29;20088;-89
2020/12/23 05:35:04;;;;;;;7.43;4.32;;;11.40;99.90;;;;;;4810853;29;20045;-89
2020/12/23 05:37:34;;;;;;;8.50;4.72;;;11.40;99.90;;;;;;4812168;29;20037;-90
2020/12/23 05:40:01;;;;;;;9.00;5.35;;;11.40;99.90;;;;;;4830810;29;20097;-89
2020/12/23 05:42:27;;;;;;;5.97;4.28;;;11.40;99.90;;;;;;4906674;29;20531;-90
2020/12/23 05:44:56;;;;;;;8.13;4.63;;;11.40;99.90;;;;;;4913735;29;20041;-92
2020/12/23 05:47:33;;;;;;;6.75;5.05;;;11.40;99.90;;;;;;4898771;29;20040;-89
2020/12/23 05:50:04;;;;;;;8.40;5.82;;;11.40;99.90;;;;;;4875844;29;20132;-89
2020/12/23 05:52:36;;;;;;;7.57;5.03;;;11.30;99.90;;;;;;4882665;29;20074;-89
2020/12/23 05:55:13;;;;;;;7.15;5.10;;;11.30;99.90;;;;;;4973366;23;20050;-91
2020/12/23 05:57:42;;;;;;;9.75;5.65;;;11.40;99.90;;;;;;4989907;28;20606;-90
2020/12/23 06:00:10;;;;;;;9.13;5.50;;;11.40;99.90;;;;;;4981084;28;20031;-92
2020/12/23 06:03:20;;;;;;;11.27;5.97;;;11.40;99.90;;;;;;4964279;28;20163;-91
2020/12/23 06:06:05;;;;;;;10.13;5.65;;;11.40;99.90;;;;;;4919641;29;20020;-90
2020/12/23 06:09:03;;;;;;;9.65;5.80;;;11.40;99.90;;;;;;4925356;29;20111;-92
2020/12/23 06:12:09;;;;;;;11.32;6.43;;;11.40;99.90;;;;;;4900205;29;20339;-91
2020/12/23 06:14:44;;;;;;;9.82;6.75;;;11.30;99.90;;;;;;4895663;29;20036;-90
2020/12/23 06:17:15;;;;;;;11.55;5.90;;;11.30;99.90;;;;;;4906542;29;20518;-92
2020/12/23 06:19:53;;;;;;;11.18;6.35;;;11.40;99.90;;;;;;4902649;29;20036;-90
2020/12/23 06:22:22;;;;;;;11.40;6.60;;;11.40;99.90;;;;;;4911768;29;20042;-90
2020/12/23 06:25:12;;;;;;;9.23;5.88;;;11.40;99.90;;;;;;4913242;29;20032;-91
2020/12/23 06:27:41;;;;;;;10.68;7.30;;;11.40;99.90;;;;;;4921627;29;20357;-92
2020/12/23 06:30:10;;;;;;;11.25;5.95;;;11.40;99.90;;;;;;4892785;29;20536;-91
2020/12/23 06:32:37;;;;;;;13.48;6.75;;;11.40;99.90;;;;;;4961058;29;20019;-88
2020/12/23 06:35:06;;;;;;;12.63;7.00;;;11.40;99.90;;;;;;4917184;29;20122;-91
2020/12/23 06:37:33;;;;;;;11.20;6.55;;;11.40;99.90;;;;;;4976706;28;20425;-91
2020/12/23 06:40:05;;;;;;;12.55;6.55;;;11.40;99.90;;;;;;4980867;28;20640;-92
2020/12/23 06:42:31;;;;;;;11.38;5.97;;;11.40;99.90;;;;;;4981511;28;20031;-91
2020/12/23 06:45:04;;;;;;;11.18;6.25;;;11.40;99.90;;;;;;4980934;28;20124;-88
2020/12/23 06:47:33;;;;;;;10.43;6.32;;;11.40;99.90;;;;;;4981646;28;20357;-89
2020/12/23 06:50:03;;;;;;;10.55;5.90;;;11.40;99.90;;;;;;4948070;29;20063;-89
2020/12/23 06:52:37;;;;;;;8.68;5.60;;;11.40;99.90;;;;;;4938871;29;20075;-90
2020/12/23 06:55:12;;;;;;;9.63;5.00;;;11.50;99.90;;;;;;4938349;29;20433;-90
2020/12/23 06:57:37;;;;;;;10.82;4.50;;;11.50;99.90;;;;;;4938868;29;20086;-91
2020/12/23 07:00:28;;;;;;;9.93;4.78;;;11.50;99.90;;;;;;4948514;29;20040;-90
2020/12/23 07:03:02;;;;;;;11.40;5.53;;;11.50;99.90;;;;;;4855259;29;20361;-90
2020/12/23 07:05:28;;;;;;;8.00;4.85;;;11.50;99.90;;;;;;4854784;29;20033;-91
2020/12/23 07:08:16;;;;;;;10.93;4.30;;;11.50;99.90;;;;;;4864918;29;20050;-90
2020/12/23 07:10:47;;;;;;;6.90;4.03;;;11.50;99.90;;;;;;4806244;29;20459;-88
2020/12/23 07:13:20;;;;;;;7.97;4.55;;;11.50;99.90;;;;;;4796693;29;20035;-92
2020/12/23 07:16:12;;;;;;;8.93;4.85;;;11.50;99.90;;;;;;4798028;29;20141;-90
2020/12/23 07:18:44;;;;;;;6.80;4.55;;;11.50;99.90;;;;;;4785765;30;20107;-91
2020/12/23 07:21:13;;;;;;;7.65;4.78;;;11.50;99.90;;;;;;4779093;29;20138;-90
2020/12/23 07:23:44;;;;;;;7.85;3.72;;;11.50;99.90;;;;;;4791820;29;20051;-90
2020/12/23 07:26:14;;;;;;;8.82;4.50;;;11.60;99.90;;;;;;4796408;29;20039;-91
2020/12/23 07:28:41;;;;;;;5.77;4.13;;;11.50;99.90;;;;;;4768453;30;20036;-90
2020/12/23 07:31:09;;;;;;;7.03;4.43;;;11.50;99.90;;;;;;4771158;30;20116;-90
2020/12/23 07:33:38;;;;;;;8.48;4.10;;;11.50;99.90;;;;;;4758344;30;20100;-90
2020/12/23 07:36:07;;;;;;;7.35;4.25;;;11.50;99.90;;;;;;4771413;30;20066;-90
2020/12/23 07:38:35;;;;;;;10.00;6.22;;;11.50;99.90;;;;;;4735730;30;20075;-90
2020/12/23 07:41:02;;;;;;;8.23;4.72;;;11.60;99.90;;;;;;4827248;29;20023;-90
2020/12/23 07:43:34;;;;;;;8.75;4.05;;;11.60;99.90;;;;;;4833885;29;20047;-91
2020/12/23 07:46:03;;;;;;;9.40;5.00;;;11.50;99.90;;;;;;4827301;29;20043;-92
2020/12/23 07:48:30;;;;;;;8.68;5.60;;;11.50;99.90;;;;;;4855672;29;20038;-91
2020/12/23 07:50:58;;;;;;;9.65;5.18;;;11.60;99.90;;;;;;4830720;29;20151;-91
2020/12/23 07:53:29;;;;;;;6.57;4.63;;;11.60;99.90;;;;;;4870162;29;20098;-91
2020/12/23 07:56:05;;;;;;;8.45;5.43;;;11.60;99.90;;;;;;4894338;29;20071;-92
2020/12/23 07:58:35;;;;;;;11.57;4.57;;;11.60;99.90;;;;;;4901643;29;20048;-92
2020/12/23 08:01:01;;;;;;;8.48;4.72;;;11.50;99.90;;;;;;4957650;29;20113;-93
2020/12/23 08:03:33;;;;;;;7.22;4.20;;;11.60;99.90;;;;;;4937096;29;20051;-92
2020/12/23 08:06:10;;;;;;;5.55;4.00;;;11.60;99.90;;;;;;4959524;29;20138;-92
2020/12/23 08:08:39;;;;;;;10.80;6.97;;;11.60;99.90;;;;;;4964359;29;20086;-93
2020/12/23 08:11:28;;;;;;;8.32;4.60;;;11.60;99.90;;;;;;4955185;29;20027;-92
2020/12/23 08:13:54;;;;;;;8.25;5.07;;;11.60;99.90;;;;;;4903043;29;20127;-91
2020/12/23 08:16:24;;;;;;;7.03;4.28;;;11.60;99.90;;;;;;4848619;29;20030;-90
2020/12/23 08:18:55;;;;;;;7.63;5.10;;;11.60;99.90;;;;;;4827466;29;20042;-90
2020/12/23 08:21:21;;;;;;;8.20;4.68;;;11.60;99.90;;;;;;4812502;29;20042;-90
2020/12/23 08:23:52;;;;;;;6.10;4.93;;;11.60;99.90;;;;;;4856198;29;20057;-91
2020/12/23 08:26:30;;;;;;;7.03;4.40;;;11.60;99.90;;;;;;4867154;29;20148;-91
2020/12/23 08:28:58;;;;;;;9.15;4.82;;;11.60;99.90;;;;;;4879184;29;20061;-88
2020/12/23 08:31:32;;;;;;;6.82;4.60;;;11.60;99.90;;;;;;4860718;29;20231;-90
2020/12/23 08:34:04;;;;;;;7.00;4.05;;;11.60;99.90;;;;;;4874859;29;20038;-90
2020/12/23 08:36:34;;;;;;;7.70;5.05;;;11.60;99.90;;;;;;4842278;29;20042;-93
2020/12/23 08:39:03;;;;;;;11.02;5.22;;;11.60;99.90;;;;;;4875134;29;20033;-91
2020/12/23 08:41:33;;;;;;;7.10;5.25;;;11.60;99.90;;;;;;4877149;29;20120;-90
2020/12/23 08:44:05;;;;;;;9.07;4.88;;;11.70;99.90;;;;;;5222900;23;20103;-92
2020/12/23 08:46:42;;;;;;;5.93;4.35;;;11.70;99.90;;;;;;4943796;28;20011;-93
2020/12/23 08:49:09;;;;;;;9.68;5.30;;;11.70;99.90;;;;;;4961876;28;20106;-94
2020/12/23 08:51:38;;;;;;;7.22;4.78;;;11.70;99.90;;;;;;4956057;28;20013;-92
2020/12/23 08:56:48;;;;;;;6.35;3.92;;;11.80;99.90;;;;;;4989340;23;20059;-92
2020/12/23 08:59:16;;;;;;;5.53;3.97;;;11.80;99.90;;;;;;4958992;28;20031;-92
2020/12/23 09:01:44;;;;;;;6.18;4.25;;;11.80;99.90;;;;;;4936309;29;20028;-91
2020/12/23 09:04:15;;;;;;;5.88;3.90;;;11.80;99.90;;;;;;4949116;29;20024;-91
2020/12/23 09:06:59;;;;;;;4.63;3.50;;;11.90;99.90;;;;;;4933858;29;20087;-95
2020/12/23 09:10:11;;;;;;;4.47;3.88;;;12.00;99.90;;;;;;4932469;29;20097;-96
2020/12/23 09:13:39;;;;;;;6.10;3.97;;;12.00;99.90;;;;;;4906662;29;20032;-94
2020/12/23 09:16:07;;;;;;;;;;;12.10;99.90;;;;;;5056952;23;20051;-96
2020/12/23 09:18:36;;;;;;;5.63;3.10;;;12.10;99.90;;;;;;4971455;29;19920;-94
2020/12/23 09:21:04;;;;;;;5.47;3.15;;;12.10;99.90;;;;;;4965685;29;20030;-94
2020/12/23 09:23:32;;;;;;;4.47;3.20;;;12.20;99.90;;;;;;4933721;29;20103;-93
2020/12/23 09:25:59;;;;;;;5.60;4.10;;;12.20;99.90;;;;;;4902632;29;20028;-91
2020/12/23 09:28:29;;;;;;;7.38;4.47;;;12.20;99.90;;;;;;5083247;23;20056;-91
2020/12/23 09:33:41;;;;;;;7.25;3.53;;;12.30;99.90;;;;;;5183911;23;20110;-92
2020/12/23 09:39:02;;;;;;;4.28;2.92;;;12.40;99.90;;;;;;5057067;23;20049;-92
2020/12/23 09:41:28;;;;;;;7.60;3.35;;;12.50;99.90;;;;;;4950582;28;20376;-80
2020/12/23 09:43:54;;;;;;;5.70;2.90;;;12.60;99.90;;;;;;4957100;29;20019;-82
2020/12/23 09:46:32;;;;;;;4.55;3.30;;;12.60;99.90;;;;;;4941949;29;20023;-84
2020/12/23 09:48:57;;;;;;;8.07;3.40;;;12.70;99.90;;;;;;4949200;29;20023;-82
2020/12/23 09:51:23;;;;;;;5.82;2.88;;;12.90;99.90;;;;;;4953747;29;20055;-81
2020/12/23 09:53:50;;;;;;;4.95;2.83;;;13.00;99.90;;;;;;4947295;29;20079;-84
2020/12/23 09:56:16;;;;;;;5.78;3.00;;;13.20;99.90;;;;;;4952430;29;20488;-83
